createdAt,value
2023-05-11T00:07:32.216Z,40.93
2023-05-11T00:17:34.325Z,40.87
2023-05-11T00:27:36.657Z,41.28
2023-05-11T00:37:41.000Z,41.88
2023-05-11T00:47:43.230Z,42.43
2023-05-11T00:57:49.497Z,42.72
2023-05-11T01:08:02.677Z,42.66
2023-05-11T01:18:19.798Z,42.67
2023-05-11T01:28:41.430Z,43.25
2023-05-11T01:38:50.440Z,43.29
2023-05-11T01:48:53.995Z,43.59
2023-05-11T01:58:59.905Z,43.66
2023-05-11T02:09:07.921Z,43.71
2023-05-11T02:19:12.694Z,43.79
2023-05-11T02:29:17.647Z,44.62
2023-05-11T02:39:22.701Z,44.92
2023-05-11T02:49:25.878Z,45.33
2023-05-11T02:59:31.408Z,45.60
2023-05-11T03:09:34.488Z,45.37
2023-05-11T03:19:39.524Z,44.62
2023-05-11T03:29:45.589Z,43.82
2023-05-11T03:39:53.283Z,42.66
2023-05-11T03:49:57.503Z,41.20
2023-05-11T04:00:03.013Z,40.61
2023-05-11T04:10:09.017Z,39.79
2023-05-11T04:20:14.347Z,39.94
2023-05-11T04:30:24.668Z,39.39
2023-05-11T04:40:29.199Z,38.89
2023-05-11T04:50:31.402Z,39.03
2023-05-11T05:00:36.914Z,38.61
2023-05-11T05:10:39.416Z,38.17
2023-05-11T05:20:41.574Z,37.51
2023-05-11T05:30:46.228Z,37.22
2023-05-11T05:40:52.779Z,37.03
2023-05-11T05:51:02.392Z,35.71
2023-05-11T06:01:10.374Z,34.92
2023-05-11T06:11:16.274Z,34.68
2023-05-11T06:21:20.964Z,33.64
2023-05-11T06:31:24.720Z,33.40
2023-05-11T06:41:29.779Z,32.51
2023-05-11T06:51:37.242Z,31.92
2023-05-11T07:01:44.107Z,31.24
2023-05-11T07:11:46.307Z,30.51
2023-05-11T07:21:49.454Z,29.46
2023-05-11T07:31:51.901Z,29.17
2023-05-11T07:41:58.781Z,29.16
2023-05-11T07:52:00.998Z,29.21
2023-05-11T08:02:04.862Z,28.20
2023-05-11T08:12:12.475Z,28.94
2023-05-11T08:22:19.650Z,28.54
2023-05-11T08:32:27.537Z,28.72
2023-05-11T08:42:34.064Z,28.37
2023-05-11T08:52:38.664Z,28.07
2023-05-11T09:02:40.944Z,28.04
2023-05-11T09:12:43.132Z,28.15
2023-05-11T09:22:48.392Z,27.88
2023-05-11T09:32:52.824Z,28.26
2023-05-11T09:42:57.445Z,28.67
2023-05-11T09:52:59.758Z,28.71
2023-05-11T10:03:07.890Z,28.96
2023-05-11T10:13:15.907Z,28.75
2023-05-11T10:23:21.518Z,28.74
2023-05-11T10:33:27.166Z,29.46
2023-05-11T10:43:38.198Z,28.92
2023-05-11T10:54:02.962Z,29.08
2023-05-11T11:04:14.004Z,28.51
2023-05-11T11:14:19.477Z,28.63
2023-05-11T11:24:43.219Z,28.90
2023-05-11T11:34:46.895Z,28.61
2023-05-11T11:44:51.642Z,28.82
2023-05-11T11:54:59.951Z,28.68
2023-05-11T12:05:18.948Z,28.57
2023-05-11T12:15:35.094Z,28.69
2023-05-11T12:25:37.270Z,28.88
2023-05-11T12:35:44.020Z,29.38
2023-05-11T12:45:47.032Z,29.20
2023-05-11T12:55:59.278Z,29.29
2023-05-11T13:06:09.227Z,29.40
2023-05-11T13:16:27.307Z,29.47
2023-05-11T13:26:30.875Z,29.35
2023-05-11T13:36:35.454Z,29.19
2023-05-11T13:46:37.712Z,29.12
2023-05-11T13:56:40.105Z,29.09
2023-05-11T14:06:43.697Z,29.06
2023-05-11T14:16:45.874Z,29.50
2023-05-11T14:26:50.552Z,29.45
2023-05-11T14:36:52.736Z,30.10
2023-05-11T14:46:59.238Z,29.67
2023-05-11T14:57:04.734Z,30.03
2023-05-11T15:07:06.855Z,29.34
2023-05-11T15:17:09.083Z,29.51
2023-05-11T15:27:11.484Z,29.63
2023-05-11T15:37:13.709Z,29.45
2023-05-11T15:47:16.654Z,29.75
2023-05-11T15:57:18.808Z,29.75
2023-05-11T16:07:20.969Z,29.68
2023-05-11T16:17:28.470Z,30.09
2023-05-11T16:27:32.881Z,30.12
2023-05-11T16:37:35.004Z,30.24
2023-05-11T16:47:39.511Z,30.18
2023-05-11T16:57:44.210Z,29.97
2023-05-11T17:07:51.901Z,30.39
2023-05-11T17:17:54.260Z,30.56
2023-05-11T17:28:00.389Z,30.55
2023-05-11T17:38:03.689Z,30.73
2023-05-11T17:48:06.058Z,30.61
2023-05-11T17:58:10.819Z,30.93
2023-05-11T18:08:14.446Z,31.14
2023-05-11T18:18:19.915Z,31.66
2023-05-11T18:28:30.545Z,31.89
2023-05-11T18:38:34.889Z,32.21
2023-05-11T18:48:41.784Z,32.67
2023-05-11T18:58:49.650Z,32.97
2023-05-11T19:08:55.790Z,33.36
2023-05-11T19:18:58.614Z,33.89
2023-05-11T19:29:00.911Z,34.36
2023-05-11T19:39:04.558Z,34.89
2023-05-11T19:49:06.695Z,35.04
2023-05-11T19:59:08.952Z,35.51
2023-05-11T20:09:14.704Z,35.52
2023-05-11T20:19:19.248Z,36.02
2023-05-11T20:29:23.580Z,36.53
2023-05-11T20:39:30.896Z,37.05
2023-05-11T20:49:39.308Z,37.51
2023-05-11T21:09:46.797Z,38.86
2023-05-11T21:19:51.311Z,39.15
2023-05-11T21:29:56.841Z,39.66
2023-05-11T21:40:02.664Z,38.86
2023-05-11T21:50:08.900Z,39.75
2023-05-11T22:00:18.800Z,40.27
2023-05-11T22:10:24.851Z,40.83
2023-05-11T22:20:31.916Z,41.54
2023-05-11T22:30:37.807Z,41.81
2023-05-11T22:40:42.326Z,42.34
2023-05-11T22:50:47.925Z,42.59
2023-05-11T23:00:54.841Z,42.42
2023-05-11T23:11:00.037Z,42.84
2023-05-11T23:21:07.364Z,43.08
2023-05-11T23:31:09.563Z,43.17
2023-05-11T23:41:11.806Z,43.52
2023-05-11T23:51:18.205Z,43.59
